createdAt,value
2018-05-23T00:01:00.672Z,139.67
2018-05-23T00:03:29.540Z,128.57
2018-05-23T00:05:58.787Z,152.00
2018-05-23T00:08:27.557Z,141.23
2018-05-23T00:10:56.493Z,129.63
2018-05-23T00:13:25.390Z,142.37
2018-05-23T00:15:55.261Z,160.03
2018-05-23T00:18:23.963Z,183.27
2018-05-23T00:20:53.083Z,229.67
2018-05-23T00:23:28.256Z,191.80
2018-05-23T00:25:57.126Z,203.13
2018-05-23T00:28:26.190Z,206.37
2018-05-23T00:30:55.154Z,192.63
2018-05-23T00:33:24.110Z,174.40
2018-05-23T00:35:52.566Z,169.43
2018-05-23T00:38:28.454Z,180.87
2018-05-23T00:40:57.021Z,149.47
2018-05-23T00:43:25.698Z,154.50
2018-05-23T00:45:55.796Z,158.23
2018-05-23T00:48:24.520Z,124.90
2018-05-23T00:50:53.228Z,123.40
2018-05-23T00:53:23.547Z,140.80
2018-05-23T00:55:52.346Z,142.70
2018-05-23T00:58:28.311Z,156.33
2018-05-23T01:00:56.655Z,129.50
2018-05-23T01:03:25.101Z,137.90
2018-05-23T01:05:54.462Z,146.90
2018-05-23T01:08:22.999Z,208.67
2018-05-23T01:10:51.518Z,197.20
2018-05-23T01:13:22.923Z,206.07
2018-05-23T01:15:52.173Z,202.87
2018-05-23T01:18:21.730Z,241.77
2018-05-23T01:20:50.527Z,231.17
2018-05-23T01:23:24.488Z,221.73
2018-05-23T01:25:53.635Z,212.23
2018-05-23T01:28:22.701Z,262.53
2018-05-23T01:30:51.042Z,184.70
2018-05-23T01:33:20.160Z,185.53
2018-05-23T01:35:49.509Z,235.77
2018-05-23T01:38:18.142Z,243.87
2018-05-23T01:40:47.904Z,272.23
2018-05-23T01:43:16.833Z,238.47
2018-05-23T01:45:49.258Z,251.67
2018-05-23T01:48:18.094Z,253.33
2018-05-23T01:50:46.567Z,279.57
2018-05-23T01:53:15.525Z,293.80
2018-05-23T01:55:43.949Z,265.93
2018-05-23T01:58:13.045Z,302.37
2018-05-23T02:00:42.360Z,294.87
2018-05-23T02:03:11.063Z,297.23
2018-05-23T02:05:40.085Z,279.37
2018-05-23T02:08:09.098Z,272.17
2018-05-23T02:10:38.113Z,252.23
2018-05-23T02:13:14.942Z,288.00
2018-05-23T02:15:43.646Z,260.17
2018-05-23T02:18:12.264Z,310.03
2018-05-23T02:20:42.144Z,352.73
2018-05-23T02:23:10.864Z,308.97
2018-05-23T02:25:40.264Z,320.10
2018-05-23T02:28:09.136Z,291.33
2018-05-23T02:30:37.872Z,278.40
2018-05-23T02:33:06.846Z,293.23
2018-05-23T02:35:36.115Z,312.20
2018-05-23T02:38:04.639Z,316.23
2018-05-23T02:40:33.585Z,276.50
2018-05-23T02:43:02.301Z,276.80
2018-05-23T02:45:30.993Z,269.50
2018-05-23T02:47:59.650Z,292.50
2018-05-23T02:50:28.735Z,287.73
2018-05-23T02:52:57.879Z,294.63
2018-05-23T02:55:26.961Z,341.00
2018-05-23T02:57:57.849Z,323.57
2018-05-23T03:00:26.607Z,269.87
2018-05-23T03:02:55.713Z,258.53
2018-05-23T03:05:24.389Z,320.03
2018-05-23T03:07:53.323Z,323.83
2018-05-23T03:10:30.599Z,358.20
2018-05-23T03:12:59.626Z,328.83
2018-05-23T03:15:29.086Z,313.17
2018-05-23T03:17:57.952Z,300.07
2018-05-23T03:20:27.260Z,350.97
2018-05-23T03:22:56.318Z,299.23
2018-05-23T03:25:24.957Z,298.80
2018-05-23T03:27:54.518Z,325.10
2018-05-23T03:30:25.130Z,267.80
2018-05-23T03:32:54.600Z,272.53
2018-05-23T03:35:23.808Z,341.43
2018-05-23T03:37:53.510Z,328.27
2018-05-23T03:40:21.866Z,332.13
2018-05-23T03:42:54.323Z,289.10
2018-05-23T03:45:22.933Z,281.97
2018-05-23T03:47:52.521Z,304.40
2018-05-23T03:50:21.528Z,286.57
2018-05-23T03:52:51.275Z,265.17
2018-05-23T03:55:20.611Z,272.60
2018-05-23T03:57:50.260Z,294.73
2018-05-23T04:00:30.758Z,255.30
2018-05-23T04:03:10.807Z,233.00
2018-05-23T04:05:51.195Z,253.63
2018-05-23T04:08:19.601Z,247.90
2018-05-23T04:10:48.438Z,276.27
2018-05-23T04:13:20.437Z,252.00
2018-05-23T04:15:49.086Z,257.57
2018-05-23T04:18:18.623Z,215.43
2018-05-23T04:20:47.295Z,181.23
2018-05-23T04:23:16.734Z,155.63
2018-05-23T04:25:48.664Z,130.00
2018-05-23T04:28:17.145Z,148.20
2018-05-23T04:30:46.581Z,163.40
2018-05-23T04:33:15.362Z,152.00
2018-05-23T04:35:45.612Z,180.43
2018-05-23T04:38:14.569Z,167.07
2018-05-23T04:40:44.592Z,163.37
2018-05-23T04:43:13.146Z,150.07
2018-05-23T04:45:41.862Z,141.20
2018-05-23T04:48:12.043Z,95.87
2018-05-23T04:50:41.630Z,117.93
2018-05-23T04:53:10.054Z,129.80
2018-05-23T04:55:39.499Z,109.13
2018-05-23T05:01:02.618Z,101.67
2018-05-23T05:03:31.662Z,77.17
2018-05-23T05:06:00.596Z,68.17
2018-05-23T05:08:29.295Z,63.33
2018-05-23T05:10:58.323Z,66.47
2018-05-23T05:13:27.419Z,76.03
2018-05-23T05:15:57.047Z,72.87
2018-05-23T05:18:25.637Z,74.67
2018-05-23T05:20:58.754Z,65.70
2018-05-23T05:23:27.432Z,65.83
2018-05-23T05:28:50.804Z,54.17
2018-05-23T05:31:19.573Z,52.37
2018-05-23T05:33:48.153Z,58.53
2018-05-23T05:36:16.731Z,47.30
2018-05-23T05:38:45.851Z,46.67
2018-05-23T05:41:14.561Z,41.90
2018-05-23T05:43:45.643Z,40.77
2018-05-23T05:46:14.075Z,36.87
2018-05-23T05:48:42.722Z,38.27
2018-05-23T05:51:11.292Z,38.30
2018-05-23T05:53:40.474Z,36.67
2018-05-23T05:56:19.760Z,36.03
2018-05-23T05:58:48.612Z,37.30
2018-05-23T06:01:17.740Z,34.57
2018-05-23T06:03:46.568Z,36.20
2018-05-23T06:06:15.504Z,38.90
2018-05-23T06:08:43.847Z,33.07
2018-05-23T06:11:17.660Z,35.03
2018-05-23T06:13:46.620Z,34.60
2018-05-23T06:16:15.230Z,36.40
2018-05-23T06:18:43.953Z,35.13
2018-05-23T06:21:17.697Z,32.43
2018-05-23T06:23:46.680Z,35.33
2018-05-23T06:26:26.466Z,38.17
2018-05-23T06:28:55.399Z,35.23
2018-05-23T06:31:23.868Z,36.33
2018-05-23T06:33:52.882Z,37.83
2018-05-23T06:36:21.542Z,34.40
2018-05-23T06:38:50.226Z,39.03
2018-05-23T06:41:18.920Z,33.40
2018-05-23T06:43:51.586Z,32.53
2018-05-23T06:46:20.316Z,31.00
2018-05-23T06:48:48.898Z,33.70
2018-05-23T06:51:17.285Z,35.63
2018-05-23T06:53:46.132Z,33.53
2018-05-23T06:56:14.809Z,32.53
2018-05-23T06:58:43.142Z,30.23
2018-05-23T07:01:11.881Z,29.57
2018-05-23T07:03:40.975Z,29.23
2018-05-23T07:06:14.074Z,33.23
2018-05-23T07:08:42.700Z,30.93
2018-05-23T07:11:15.396Z,31.33
2018-05-23T07:13:44.589Z,27.73
2018-05-23T07:16:13.124Z,30.90
2018-05-23T07:18:49.285Z,30.40
2018-05-23T07:21:17.583Z,28.73
2018-05-23T07:23:45.961Z,27.60
2018-05-23T07:26:15.451Z,28.63
2018-05-23T07:28:44.188Z,27.03
2018-05-23T07:31:12.875Z,25.57
2018-05-23T07:33:41.105Z,29.50
2018-05-23T07:36:09.694Z,27.63
2018-05-23T07:38:38.244Z,26.87
2018-05-23T07:41:07.129Z,27.97
2018-05-23T07:43:37.107Z,26.87
2018-05-23T07:46:06.355Z,26.80
2018-05-23T07:48:35.035Z,27.07
2018-05-23T07:51:04.417Z,27.47
2018-05-23T07:53:33.032Z,28.60
2018-05-23T07:56:02.214Z,26.17
2018-05-23T07:58:31.148Z,28.47
2018-05-23T08:00:59.554Z,26.13
2018-05-23T08:03:28.183Z,28.37
2018-05-23T08:05:57.513Z,28.73
2018-05-23T08:08:25.948Z,30.33
2018-05-23T08:10:54.462Z,27.77
2018-05-23T08:13:23.144Z,27.90
2018-05-23T08:15:51.524Z,29.10
2018-05-23T08:18:20.016Z,28.73
2018-05-23T08:20:55.514Z,27.00
2018-05-23T08:23:24.110Z,25.97
2018-05-23T08:26:06.162Z,28.33
2018-05-23T08:28:35.126Z,26.63
2018-05-23T08:31:04.908Z,31.37
2018-05-23T08:33:37.344Z,27.53
2018-05-23T08:36:05.934Z,28.73
2018-05-23T08:38:35.299Z,28.23
2018-05-23T08:41:03.746Z,28.93
2018-05-23T08:43:32.290Z,29.30
2018-05-23T08:46:00.906Z,27.43
2018-05-23T08:48:29.961Z,26.40
2018-05-23T08:50:58.421Z,26.33
2018-05-23T08:53:26.523Z,24.27
2018-05-23T08:55:54.757Z,25.83
2018-05-23T08:58:23.099Z,24.40
2018-05-23T09:00:51.481Z,27.00
2018-05-23T09:03:20.193Z,27.13
2018-05-23T09:05:48.886Z,25.10
2018-05-23T09:08:17.938Z,24.07
2018-05-23T09:10:46.900Z,22.57
2018-05-23T09:13:15.442Z,24.57
2018-05-23T09:15:44.477Z,21.60
2018-05-23T09:18:13.878Z,22.90
2018-05-23T09:20:42.598Z,21.33
2018-05-23T09:23:11.827Z,19.70
2018-05-23T09:25:40.569Z,20.70
2018-05-23T09:28:09.317Z,20.03
2018-05-23T09:30:37.843Z,18.43
2018-05-23T09:33:06.766Z,18.23
2018-05-23T09:35:35.916Z,15.87
2018-05-23T09:38:04.256Z,19.87
2018-05-23T09:40:32.867Z,18.37
2018-05-23T09:43:01.748Z,17.30
2018-05-23T09:45:29.930Z,14.30
2018-05-23T09:47:59.181Z,15.87
2018-05-23T09:50:27.762Z,18.40
2018-05-23T09:52:56.253Z,16.47
2018-05-23T09:55:24.798Z,14.60
2018-05-23T09:57:52.743Z,14.73
2018-05-23T10:00:25.318Z,15.20
2018-05-23T10:02:54.360Z,14.97
2018-05-23T10:05:22.833Z,15.23
2018-05-23T10:07:51.521Z,15.07
2018-05-23T10:10:19.736Z,15.67
2018-05-23T10:12:48.624Z,19.17
2018-05-23T10:15:17.490Z,17.47
2018-05-23T10:17:46.053Z,17.13
2018-05-23T10:20:14.566Z,14.93
2018-05-23T10:22:43.333Z,15.20
2018-05-23T10:25:12.085Z,13.33
2018-05-23T10:27:40.528Z,15.27
2018-05-23T10:30:10.254Z,14.13
2018-05-23T10:32:38.716Z,13.97
2018-05-23T10:35:07.418Z,13.83
2018-05-23T10:37:36.624Z,11.93
2018-05-23T10:40:05.498Z,11.83
2018-05-23T10:42:34.604Z,14.17
2018-05-23T10:45:03.414Z,12.80
2018-05-23T10:47:32.121Z,8.67
2018-05-23T10:50:02.668Z,13.73
2018-05-23T10:52:31.670Z,9.67
2018-05-23T10:55:01.644Z,10.60
2018-05-23T10:57:30.561Z,8.50
2018-05-23T10:59:59.720Z,9.80
2018-05-23T11:02:28.594Z,7.83
2018-05-23T11:04:57.742Z,7.60
2018-05-23T11:07:26.568Z,13.90
2018-05-23T11:09:55.994Z,8.57
2018-05-23T11:12:24.519Z,8.30
2018-05-23T11:14:53.009Z,8.33
2018-05-23T11:17:21.658Z,9.37
2018-05-23T11:19:50.396Z,6.10
2018-05-23T11:22:19.203Z,7.33
2018-05-23T11:24:48.139Z,8.50
2018-05-23T11:27:17.288Z,6.00
2018-05-23T11:29:46.412Z,4.83
2018-05-23T11:32:18.444Z,9.17
2018-05-23T11:34:47.415Z,6.70
2018-05-23T11:37:16.329Z,3.30
2018-05-23T11:39:44.893Z,3.73
2018-05-23T11:42:13.507Z,4.53
2018-05-23T11:44:42.263Z,4.10
2018-05-23T11:47:11.760Z,4.57
2018-05-23T11:49:40.859Z,7.33
2018-05-23T11:52:09.847Z,5.50
2018-05-23T11:54:38.785Z,5.93
2018-05-23T11:57:07.367Z,4.73
2018-05-23T11:59:36.020Z,7.57
2018-05-23T12:02:05.136Z,6.67
2018-05-23T12:04:34.107Z,5.17
2018-05-23T12:07:03.430Z,4.00
2018-05-23T12:09:32.683Z,4.63
2018-05-23T12:12:01.665Z,5.27
2018-05-23T12:14:30.845Z,4.70
2018-05-23T12:16:59.830Z,4.13
2018-05-23T12:19:33.850Z,4.97
2018-05-23T12:22:02.397Z,5.33
2018-05-23T12:24:33.831Z,5.73
2018-05-23T12:27:02.934Z,5.67
2018-05-23T12:29:35.032Z,4.70
2018-05-23T12:32:03.576Z,4.40
2018-05-23T12:34:32.164Z,5.57
2018-05-23T12:37:00.956Z,6.30
2018-05-23T12:39:29.891Z,6.23
2018-05-23T12:41:58.433Z,5.43
2018-05-23T12:44:27.257Z,4.07
2018-05-23T12:46:56.175Z,5.77
2018-05-23T12:49:24.856Z,5.73
2018-05-23T12:51:53.835Z,5.77
2018-05-23T12:54:22.534Z,4.47
2018-05-23T12:56:53.523Z,5.93
2018-05-23T12:59:22.245Z,5.83
2018-05-23T13:01:51.515Z,6.13
2018-05-23T13:04:20.739Z,5.37
2018-05-23T13:06:49.657Z,5.67
2018-05-23T13:09:18.359Z,7.23
2018-05-23T13:11:47.163Z,5.53
2018-05-23T13:14:16.725Z,6.03
2018-05-23T13:16:45.693Z,6.33
2018-05-23T13:19:16.767Z,7.47
2018-05-23T13:21:45.552Z,6.23
2018-05-23T13:24:14.593Z,5.17
2018-05-23T13:26:43.224Z,9.27
2018-05-23T13:29:13.448Z,6.73
2018-05-23T13:31:43.365Z,5.03
2018-05-23T13:34:15.782Z,5.40
2018-05-23T13:36:44.376Z,5.83
2018-05-23T13:39:13.424Z,6.57
2018-05-23T13:41:42.037Z,5.43
2018-05-23T13:44:10.656Z,8.37
2018-05-23T13:46:39.754Z,5.97
2018-05-23T13:49:08.803Z,6.20
2018-05-23T13:51:44.051Z,6.17
2018-05-23T13:54:13.147Z,8.63
2018-05-23T13:56:41.363Z,6.43
2018-05-23T13:59:09.449Z,5.97
2018-05-23T14:01:37.929Z,5.90
2018-05-23T14:04:06.570Z,7.93
2018-05-23T14:06:34.982Z,6.50
2018-05-23T14:09:03.484Z,5.32
2018-05-23T14:11:31.969Z,7.18
2018-05-23T14:14:00.356Z,7.85
2018-05-23T14:16:28.960Z,6.50
2018-05-23T14:18:57.021Z,6.80
2018-05-23T14:21:25.278Z,6.55
2018-05-23T14:23:56.044Z,9.15
2018-05-23T14:26:25.200Z,9.48
2018-05-23T14:28:54.078Z,10.00
2018-05-23T14:31:22.164Z,9.30
2018-05-23T14:33:51.648Z,7.47
2018-05-23T14:36:20.134Z,5.80
2018-05-23T14:38:49.845Z,15.38
2018-05-23T14:41:22.525Z,10.38
2018-05-23T14:43:50.633Z,8.07
2018-05-23T14:46:19.448Z,11.00
2018-05-23T14:48:47.889Z,10.88
2018-05-23T14:51:21.078Z,11.43
2018-05-23T14:53:49.083Z,8.00
2018-05-23T14:56:18.501Z,8.88
2018-05-23T14:58:47.195Z,8.18
2018-05-23T15:01:16.411Z,11.50
2018-05-23T15:03:45.178Z,12.52
2018-05-23T15:06:13.312Z,10.88
2018-05-23T15:08:41.926Z,7.45
2018-05-23T15:11:10.206Z,7.28
2018-05-23T15:13:39.196Z,7.47
2018-05-23T15:16:07.452Z,9.52
2018-05-23T15:18:36.287Z,11.32
2018-05-23T15:21:04.457Z,8.88
2018-05-23T15:23:34.831Z,9.75
2018-05-23T15:26:03.021Z,9.27
2018-05-23T15:28:32.240Z,7.95
2018-05-23T15:31:00.825Z,8.75
2018-05-23T15:33:32.439Z,9.65
2018-05-23T15:36:00.602Z,11.73
2018-05-23T15:38:28.723Z,9.00
2018-05-23T15:40:56.956Z,11.80
2018-05-23T15:43:25.731Z,11.23
2018-05-23T15:45:53.896Z,10.55
2018-05-23T15:48:22.702Z,9.80
2018-05-23T15:50:51.200Z,9.60
2018-05-23T15:53:21.125Z,9.85
2018-05-23T15:55:49.180Z,9.50
2018-05-23T15:58:18.841Z,12.93
2018-05-23T16:00:46.960Z,14.03
2018-05-23T16:03:15.098Z,10.20
2018-05-23T16:05:43.594Z,10.40
2018-05-23T16:08:12.285Z,9.33
2018-05-23T16:10:42.025Z,8.70
2018-05-23T16:13:14.128Z,12.03
2018-05-23T16:15:43.102Z,10.10
2018-05-23T16:18:12.609Z,12.80
2018-05-23T16:20:40.864Z,8.23
2018-05-23T16:23:08.984Z,9.13
2018-05-23T16:25:37.850Z,9.57
2018-05-23T16:28:06.897Z,7.80
2018-05-23T16:30:35.075Z,11.93
2018-05-23T16:33:03.276Z,7.90
2018-05-23T16:35:32.727Z,6.93
2018-05-23T16:38:00.943Z,8.33
2018-05-23T16:40:29.383Z,9.43
2018-05-23T16:42:57.257Z,8.93
2018-05-23T16:45:25.661Z,9.63
2018-05-23T16:47:53.861Z,8.53
2018-05-23T16:50:22.218Z,7.87
2018-05-23T16:52:50.322Z,10.57
2018-05-23T16:55:18.640Z,6.37
2018-05-23T16:57:47.180Z,9.03
2018-05-23T17:00:16.190Z,7.70
2018-05-23T17:02:44.724Z,10.30
2018-05-23T17:05:13.251Z,7.27
2018-05-23T17:07:41.749Z,10.03
2018-05-23T17:10:10.239Z,7.10
2018-05-23T17:12:39.106Z,7.67
2018-05-23T17:15:07.490Z,8.27
2018-05-23T17:17:35.636Z,8.27
2018-05-23T17:20:04.304Z,8.83
2018-05-23T17:22:32.439Z,7.07
2018-05-23T17:25:01.914Z,6.77
2018-05-23T17:27:30.555Z,9.50
2018-05-23T17:29:59.467Z,9.33
2018-05-23T17:32:28.274Z,5.77
2018-05-23T17:34:56.401Z,10.17
2018-05-23T17:37:24.680Z,8.77
2018-05-23T17:39:53.428Z,7.00
2018-05-23T17:42:21.852Z,7.93
2018-05-23T17:44:49.855Z,7.67
2018-05-23T17:47:18.624Z,6.50
2018-05-23T17:49:47.183Z,6.47
2018-05-23T17:52:16.143Z,8.50
2018-05-23T17:54:44.435Z,6.70
2018-05-23T17:57:17.290Z,11.00
2018-05-23T17:59:46.329Z,11.90
2018-05-23T18:02:15.478Z,9.40
2018-05-23T18:04:44.039Z,8.50
2018-05-23T18:07:12.506Z,4.70
2018-05-23T18:09:40.997Z,7.57
2018-05-23T18:12:10.307Z,5.43
2018-05-23T18:14:38.475Z,6.10
2018-05-23T18:17:07.181Z,7.67
2018-05-23T18:19:35.741Z,12.03
2018-05-23T18:22:04.155Z,8.27
2018-05-23T18:24:32.960Z,8.43
2018-05-23T18:27:01.298Z,4.57
2018-05-23T18:29:32.725Z,6.60
2018-05-23T18:32:02.380Z,8.83
2018-05-23T18:34:31.264Z,5.53
2018-05-23T18:37:00.485Z,7.50
2018-05-23T18:39:30.045Z,10.87
2018-05-23T18:41:58.794Z,7.90
2018-05-23T18:44:27.700Z,7.40
2018-05-23T18:46:56.328Z,9.07
2018-05-23T18:49:24.974Z,8.53
2018-05-23T18:51:53.236Z,5.73
2018-05-23T18:54:21.830Z,9.20
2018-05-23T18:56:52.281Z,6.13
2018-05-23T18:59:21.250Z,6.40
2018-05-23T19:01:49.757Z,8.60
2018-05-23T19:04:18.444Z,8.43
2018-05-23T19:06:48.650Z,7.37
2018-05-23T19:09:17.532Z,7.77
2018-05-23T19:11:46.044Z,5.23
2018-05-23T19:14:15.057Z,6.80
2018-05-23T19:16:43.404Z,5.80
2018-05-23T19:19:17.482Z,7.87
2018-05-23T19:21:46.013Z,5.73
2018-05-23T19:24:17.119Z,8.83
2018-05-23T19:26:45.912Z,5.83
2018-05-23T19:29:14.783Z,4.83
2018-05-23T19:31:42.804Z,6.40
2018-05-23T19:34:11.335Z,7.37
2018-05-23T19:36:46.570Z,11.03
2018-05-23T19:39:15.135Z,4.60
2018-05-23T19:41:47.205Z,5.53
2018-05-23T19:44:15.789Z,6.87
2018-05-23T19:46:44.074Z,6.90
2018-05-23T19:49:12.370Z,7.30
2018-05-23T19:51:46.805Z,10.40
2018-05-23T19:54:15.229Z,8.23
2018-05-23T19:56:43.324Z,6.43
2018-05-23T19:59:11.732Z,8.43
2018-05-23T20:01:41.119Z,4.77
2018-05-23T20:04:09.401Z,7.17
2018-05-23T20:06:38.015Z,4.67
2018-05-23T20:09:06.503Z,7.27
2018-05-23T20:11:35.009Z,6.17
2018-05-23T20:14:04.843Z,5.87
2018-05-23T20:16:38.945Z,5.40
2018-05-23T20:19:07.668Z,7.80
2018-05-23T20:21:36.127Z,5.47
2018-05-23T20:24:04.521Z,6.07
2018-05-23T20:26:35.821Z,6.77
2018-05-23T20:29:04.245Z,5.43
2018-05-23T20:31:32.783Z,5.63
2018-05-23T20:34:01.359Z,8.37
2018-05-23T20:36:30.048Z,6.37
2018-05-23T20:38:58.695Z,5.90
2018-05-23T20:41:28.086Z,4.50
2018-05-23T20:43:56.745Z,7.03
2018-05-23T20:46:25.419Z,8.97
2018-05-23T20:48:53.839Z,5.70
2018-05-23T20:51:22.534Z,7.40
2018-05-23T20:53:51.168Z,4.33
2018-05-23T20:56:20.183Z,5.40
2018-05-23T20:58:49.125Z,7.57
2018-05-23T21:01:17.571Z,5.80
2018-05-23T21:03:46.489Z,5.90
2018-05-23T21:06:15.174Z,5.20
2018-05-23T21:08:43.615Z,7.30
2018-05-23T21:11:12.458Z,9.03
2018-05-23T21:13:41.248Z,5.43
2018-05-23T21:16:09.773Z,7.50
2018-05-23T21:18:38.709Z,6.03
2018-05-23T21:21:08.197Z,10.03
2018-05-23T21:23:36.561Z,8.50
2018-05-23T21:26:06.274Z,8.17
2018-05-23T21:28:38.560Z,8.67
2018-05-23T21:31:07.515Z,9.90
2018-05-23T21:33:37.878Z,7.63
2018-05-23T21:36:06.883Z,5.20
2018-05-23T21:38:36.228Z,5.87
2018-05-23T21:41:04.508Z,7.00
2018-05-23T21:43:32.867Z,7.60
2018-05-23T21:46:00.955Z,6.10
2018-05-23T21:48:29.261Z,6.10
2018-05-23T21:50:58.719Z,5.10
2018-05-23T21:53:26.980Z,4.77
2018-05-23T21:56:01.104Z,6.77
2018-05-23T21:58:29.412Z,8.20
2018-05-23T22:01:07.710Z,8.80
2018-05-23T22:03:37.030Z,7.40
2018-05-23T22:06:05.518Z,5.07
2018-05-23T22:08:36.835Z,5.93
2018-05-23T22:11:05.142Z,4.97
2018-05-23T22:13:33.982Z,8.60
2018-05-23T22:16:02.650Z,6.40
2018-05-23T22:18:31.238Z,5.57
2018-05-23T22:21:00.126Z,6.23
2018-05-23T22:23:28.794Z,6.47
2018-05-23T22:25:57.912Z,7.50
2018-05-23T22:28:26.999Z,7.03
2018-05-23T22:30:55.289Z,5.87
2018-05-23T22:33:24.231Z,8.03
2018-05-23T22:35:52.583Z,7.07
2018-05-23T22:38:21.055Z,8.00
2018-05-23T22:40:50.531Z,10.23
2018-05-23T22:43:19.325Z,7.17
2018-05-23T22:45:47.643Z,6.30
2018-05-23T22:48:17.157Z,7.57
2018-05-23T22:50:50.470Z,5.50
2018-05-23T22:53:19.056Z,7.03
2018-05-23T22:55:47.494Z,7.40
2018-05-23T22:58:16.419Z,7.67
2018-05-23T23:00:44.959Z,6.87
2018-05-23T23:03:13.760Z,7.90
2018-05-23T23:05:42.591Z,7.13
2018-05-23T23:08:11.881Z,7.90
2018-05-23T23:10:41.289Z,5.93
2018-05-23T23:13:09.645Z,9.20
2018-05-23T23:15:39.571Z,7.67
2018-05-23T23:18:07.863Z,7.10
2018-05-23T23:20:36.329Z,4.70
2018-05-23T23:23:05.107Z,8.53
2018-05-23T23:25:33.682Z,7.20
2018-05-23T23:28:02.089Z,6.63
2018-05-23T23:30:30.391Z,6.43
2018-05-23T23:32:59.351Z,4.73
2018-05-23T23:35:28.012Z,4.60
2018-05-23T23:37:57.303Z,5.97
2018-05-23T23:40:25.707Z,4.37
2018-05-23T23:42:54.715Z,4.80
2018-05-23T23:45:22.851Z,5.93
2018-05-23T23:47:51.023Z,5.47
2018-05-23T23:50:19.826Z,6.80
2018-05-23T23:52:48.718Z,7.97
2018-05-23T23:55:16.846Z,6.77
2018-05-23T23:57:45.202Z,6.30
